Time;durP1;ratioP1;P1;durP2;ratioP2;P2;SDS_P1;SDS_P2;PMS_P1;PMS_P2;Temp;Humidity;BMP_temperature;BMP_pressure;BME280_temperature;BME280_humidity;BME280_pressure;Samples;Min_cycle;Max_cycle;Signal;HPM_P1;HPM_P2
2022/11/25 00:00:08;;;;;;;;;;;1.60;99.90;;;;;;5043386;28;20224;-69
2022/11/25 00:02:34;;;;;;;;;;;1.60;99.90;;;;;;5043144;28;20208;-70
2022/11/25 00:05:16;;;;;;;;;;;1.60;99.90;;;;;;5042423;28;19984;-69
2022/11/25 00:07:44;;;;;;;;;;;1.60;99.90;;;;;;5045164;28;19996;-69
2022/11/25 00:10:11;;;;;;;;;;;1.60;99.90;;;;;;5047397;28;19991;-69
2022/11/25 00:12:37;;;;;;;;;;;1.60;99.90;;;;;;5047226;28;19964;-70
2022/11/25 00:15:04;;;;;;;;;;;1.60;99.90;;;;;;5046666;28;20263;-69
2022/11/25 00:17:31;;;;;;;;;;;1.60;99.90;;;;;;5046681;28;19964;-70
2022/11/25 00:20:00;;;;;;;;;;;1.60;99.90;;;;;;5046779;28;20272;-69
2022/11/25 00:22:27;;;;;;;;;;;1.50;99.90;;;;;;5047093;28;19921;-70
2022/11/25 00:24:55;;;;;;;;;;;1.50;99.90;;;;;;5046435;28;20243;-70
2022/11/25 00:27:21;;;;;;;;;;;1.50;99.90;;;;;;5046791;28;19987;-69
2022/11/25 00:29:48;;;;;;;;;;;1.60;99.90;;;;;;5047037;28;19988;-69
2022/11/25 00:32:14;;;;;;;;;;;1.50;99.90;;;;;;5046827;28;19987;-69
2022/11/25 00:34:41;;;;;;;;;;;1.50;99.90;;;;;;5046075;28;19984;-70
2022/11/25 00:37:08;;;;;;;;;;;1.50;99.90;;;;;;5046671;28;19996;-70
2022/11/25 00:39:34;;;;;;;;;;;1.50;99.90;;;;;;5046728;28;20004;-68
2022/11/25 00:44:46;;;;;;;;;;;1.40;99.90;;;;;;5045788;28;19928;-75
2022/11/25 00:47:14;;;;;;;;;;;1.40;99.90;;;;;;5046176;28;20275;-72
2022/11/25 00:49:42;;;;;;;;;;;1.40;99.90;;;;;;5046634;28;20208;-69
2022/11/25 00:52:10;;;;;;;;;;;1.40;99.90;;;;;;5046303;28;20284;-69
2022/11/25 00:54:36;;;;;;;;;;;1.40;99.90;;;;;;5046355;28;19957;-69
2022/11/25 00:57:04;;;;;;;;;;;1.40;99.90;;;;;;5046351;28;19976;-70
2022/11/25 00:59:31;;;;;;;;;;;1.40;99.90;;;;;;5046212;28;19956;-69
2022/11/25 01:01:57;;;;;;;;;;;1.40;99.90;;;;;;5039268;28;19959;-69
2022/11/25 01:04:24;;;;;;;;;;;1.30;99.90;;;;;;5046165;28;19953;-69
2022/11/25 01:06:52;;;;;;;;;;;1.40;99.90;;;;;;5045577;28;19956;-70
2022/11/25 01:09:19;;;;;;;;;;;1.30;99.90;;;;;;5046238;28;19928;-69
2022/11/25 01:11:46;;;;;;;;;;;1.30;99.90;;;;;;5045863;28;19921;-69
2022/11/25 01:14:14;;;;;;;;;;;1.30;99.90;;;;;;5045697;28;19980;-70
2022/11/25 01:16:40;;;;;;;;;;;1.20;99.90;;;;;;5044928;28;19976;-70
2022/11/25 01:19:07;;;;;;;;;;;1.20;99.90;;;;;;5045611;28;20165;-69
2022/11/25 01:21:34;;;;;;;;;;;1.20;99.90;;;;;;5045697;28;20153;-69
2022/11/25 01:24:01;;;;;;;;;;;1.20;99.90;;;;;;5045665;28;20075;-69
2022/11/25 01:26:28;;;;;;;;;;;1.20;99.90;;;;;;5045294;28;19927;-69
2022/11/25 01:28:56;;;;;;;;;;;1.20;99.90;;;;;;5045572;28;20209;-70
2022/11/25 01:31:24;;;;;;;;;;;1.20;99.90;;;;;;5045410;28;19983;-69
2022/11/25 01:33:53;;;;;;;;;;;1.10;99.90;;;;;;5045627;28;19921;-69
2022/11/25 01:36:19;;;;;;;;;;;1.10;99.90;;;;;;5025185;28;19961;-69
2022/11/25 01:38:49;;;;;;;;;;;1.10;99.90;;;;;;5025587;28;19964;-69
2022/11/25 01:41:16;;;;;;;;;;;1.10;99.90;;;;;;5026406;28;19985;-69
2022/11/25 01:43:43;;;;;;;;;;;1.10;99.90;;;;;;5045554;28;19989;-70
2022/11/25 01:46:18;;;;;;;;;;;1.10;99.90;;;;;;5044021;28;19984;-69
2022/11/25 01:48:49;;;;;;;;;;;1.10;99.90;;;;;;5045446;28;19988;-69
2022/11/25 01:51:18;;;;;;;;;;;1.10;99.90;;;;;;5045382;28;20281;-69
2022/11/25 01:53:45;;;;;;;;;;;1.10;99.90;;;;;;5045315;28;19989;-69
2022/11/25 01:56:11;;;;;;;;;;;1.10;99.90;;;;;;5043998;28;19955;-70
2022/11/25 01:58:39;;;;;;;;;;;1.00;99.90;;;;;;5045020;28;20268;-69
2022/11/25 02:01:05;;;;;;;;;;;1.00;99.90;;;;;;5044849;28;20231;-72
2022/11/25 02:03:34;;;;;;;;;;;1.00;99.90;;;;;;5045152;28;19953;-70
2022/11/25 02:06:06;;;;;;;;;;;1.00;99.90;;;;;;5044476;28;19956;-69
2022/11/25 02:08:33;;;;;;;;;;;1.00;99.90;;;;;;5045123;28;19920;-69
2022/11/25 02:11:03;;;;;;;;;;;0.90;99.90;;;;;;5044788;28;19988;-70
2022/11/25 02:13:30;;;;;;;;;;;1.00;99.90;;;;;;5044993;28;19952;-70
2022/11/25 02:15:57;;;;;;;;;;;1.00;99.90;;;;;;5044737;28;19987;-69
2022/11/25 02:18:25;;;;;;;;;;;1.00;99.90;;;;;;5044541;28;19921;-69
2022/11/25 02:20:51;;;;;;;;;;;1.00;99.90;;;;;;5044537;28;19960;-68
2022/11/25 02:23:25;;;;;;;;;;;1.00;99.90;;;;;;5044851;28;19976;-70
2022/11/25 02:25:53;;;;;;;;;;;0.90;99.90;;;;;;5044050;28;20068;-69
2022/11/25 02:28:22;;;;;;;;;;;0.90;99.90;;;;;;5044722;28;19996;-69
2022/11/25 02:30:48;;;;;;;;;;;0.90;99.90;;;;;;5043778;28;19956;-70
2022/11/25 02:33:15;;;;;;;;;;;0.90;99.90;;;;;;5043665;28;19952;-69
2022/11/25 02:35:43;;;;;;;;;;;0.90;99.90;;;;;;5038855;28;19985;-69
2022/11/25 02:38:11;;;;;;;;;;;0.90;99.90;;;;;;5044117;28;19992;-69
2022/11/25 02:40:45;;;;;;;;;;;0.90;99.90;;;;;;5044515;28;20001;-69
2022/11/25 02:43:13;;;;;;;;;;;0.90;99.90;;;;;;5044186;28;19992;-69
2022/11/25 02:45:44;;;;;;;;;;;0.90;99.90;;;;;;5044219;28;19988;-69
2022/11/25 02:48:10;;;;;;;;;;;0.90;99.90;;;;;;5044333;28;20216;-69
2022/11/25 02:50:37;;;;;;;;;;;0.90;99.90;;;;;;5044286;28;19955;-69
2022/11/25 02:53:04;;;;;;;;;;;0.90;99.90;;;;;;5044411;28;19953;-69
2022/11/25 02:55:31;;;;;;;;;;;0.80;99.90;;;;;;5044070;28;20013;-69
2022/11/25 02:57:57;;;;;;;;;;;0.90;99.90;;;;;;5043830;28;19996;-69
2022/11/25 03:00:25;;;;;;;;;;;0.80;99.90;;;;;;5044247;28;20008;-69
2022/11/25 03:02:53;;;;;;;;;;;0.80;99.90;;;;;;5043734;28;19988;-69
2022/11/25 03:05:19;;;;;;;;;;;0.80;99.90;;;;;;5035901;28;19928;-69
2022/11/25 03:07:46;;;;;;;;;;;0.80;99.90;;;;;;5044104;28;19959;-69
2022/11/25 03:10:13;;;;;;;;;;;0.80;99.90;;;;;;5044156;28;19995;-69
2022/11/25 03:12:39;;;;;;;;;;;0.80;99.90;;;;;;5044145;28;20145;-70
2022/11/25 03:15:06;;;;;;;;;;;0.80;99.90;;;;;;5043463;28;19987;-69
2022/11/25 03:17:34;;;;;;;;;;;0.80;99.90;;;;;;5043887;28;19984;-69
2022/11/25 03:20:01;;;;;;;;;;;0.80;99.90;;;;;;5043882;28;19960;-69
2022/11/25 03:22:28;;;;;;;;;;;0.80;99.90;;;;;;5044000;28;19921;-68
2022/11/25 03:24:54;;;;;;;;;;;0.80;99.90;;;;;;5043384;28;19953;-69
2022/11/25 03:27:21;;;;;;;;;;;0.80;99.90;;;;;;5043802;28;20008;-70
2022/11/25 03:29:48;;;;;;;;;;;0.80;99.90;;;;;;5043924;28;20284;-68
2022/11/25 03:32:14;;;;;;;;;;;0.80;99.90;;;;;;5043784;28;20144;-69
2022/11/25 03:34:42;;;;;;;;;;;0.80;99.90;;;;;;5043311;28;19954;-69
2022/11/25 03:37:09;;;;;;;;;;;0.80;99.90;;;;;;5043450;28;19988;-69
2022/11/25 03:39:36;;;;;;;;;;;0.70;99.90;;;;;;5043847;28;20024;-68
2022/11/25 03:42:02;;;;;;;;;;;0.70;99.90;;;;;;5046016;28;19953;-69
2022/11/25 03:44:46;;;;;;;;;;;0.70;99.90;;;;;;5026978;28;19955;-69
2022/11/25 03:47:13;;;;;;;;;;;0.70;99.90;;;;;;5030503;28;19988;-69
2022/11/25 03:49:39;;;;;;;;;;;0.70;99.90;;;;;;5047022;28;19984;-69
2022/11/25 03:52:07;;;;;;;;;;;0.60;99.90;;;;;;5047409;28;19984;-69
2022/11/25 03:54:34;;;;;;;;;;;0.60;99.90;;;;;;5047121;28;20144;-69
2022/11/25 03:57:00;;;;;;;;;;;0.70;99.90;;;;;;5034880;28;19992;-69
2022/11/25 03:59:27;;;;;;;;;;;0.80;99.90;;;;;;5027738;28;19957;-69
2022/11/25 04:01:54;;;;;;;;;;;0.70;99.90;;;;;;5034647;28;19988;-70
2022/11/25 04:04:20;;;;;;;;;;;0.70;99.90;;;;;;5046802;28;20270;-68
2022/11/25 04:07:00;;;;;;;;;;;0.60;99.90;;;;;;5043935;28;19928;-70
2022/11/25 04:09:28;;;;;;;;;;;0.60;99.90;;;;;;5047067;28;19963;-70
2022/11/25 04:14:39;;;;;;;;;;;0.60;99.90;;;;;;5046580;28;19924;-70
2022/11/25 04:17:06;;;;;;;;;;;0.60;99.90;;;;;;5070072;22;19998;-70
2022/11/25 04:19:32;;;;;;;;;;;0.60;99.90;;;;;;5045131;28;19984;-70
2022/11/25 04:22:00;;;;;;;;;;;0.50;99.90;;;;;;5027156;28;20261;-69
2022/11/25 04:24:27;;;;;;;;;;;0.50;99.90;;;;;;5037401;28;20216;-70
2022/11/25 04:26:55;;;;;;;;;;;0.50;99.90;;;;;;5046126;28;19988;-70
2022/11/25 04:29:21;;;;;;;;;;;0.50;99.90;;;;;;5046868;28;19984;-69
2022/11/25 04:31:48;;;;;;;;;;;0.40;99.90;;;;;;5040411;28;20210;-70
2022/11/25 04:34:15;;;;;;;;;;;0.50;99.90;;;;;;5057188;28;19956;-70
2022/11/25 04:36:41;;;;;;;;;;;0.40;99.90;;;;;;5065768;28;19963;-70
2022/11/25 04:39:08;;;;;;;;;;;0.40;99.90;;;;;;5066611;28;20203;-70
2022/11/25 04:41:34;;;;;;;;;;;0.40;99.90;;;;;;5066554;28;19963;-69
2022/11/25 04:44:02;;;;;;;;;;;0.40;99.90;;;;;;5066383;28;19971;-69
2022/11/25 04:46:32;;;;;;;;;;;0.30;99.90;;;;;;5061408;28;19956;-70
2022/11/25 04:48:59;;;;;;;;;;;0.30;99.90;;;;;;5055157;28;19963;-70
2022/11/25 04:51:26;;;;;;;;;;;0.30;99.90;;;;;;5066159;28;19920;-70
2022/11/25 04:53:52;;;;;;;;;;;0.30;99.90;;;;;;5065575;28;19956;-70
2022/11/25 04:56:20;;;;;;;;;;;0.30;99.90;;;;;;5065492;28;19988;-70
2022/11/25 05:01:32;;;;;;;;;;;0.30;99.90;;;;;;5058179;28;19956;-70
2022/11/25 05:03:58;;;;;;;;;;;0.20;99.90;;;;;;5043083;28;19948;-70
2022/11/25 05:06:25;;;;;;;;;;;0.20;99.90;;;;;;5045075;28;19944;-70
2022/11/25 05:08:52;;;;;;;;;;;0.20;99.90;;;;;;5046041;28;19988;-70
2022/11/25 05:11:18;;;;;;;;;;;0.20;99.90;;;;;;5046179;28;19990;-70
2022/11/25 05:13:45;;;;;;;;;;;0.20;99.90;;;;;;5045899;28;19948;-70
2022/11/25 05:16:12;;;;;;;;;;;0.20;99.90;;;;;;5042978;28;19992;-70
2022/11/25 05:18:39;;;;;;;;;;;0.20;99.90;;;;;;5044414;28;19921;-70
2022/11/25 05:21:07;;;;;;;;;;;0.20;99.90;;;;;;5063611;28;19952;-70
2022/11/25 05:23:33;;;;;;;;;;;0.20;99.90;;;;;;5049807;28;19960;-69
2022/11/25 05:26:00;;;;;;;;;;;0.20;99.90;;;;;;5044985;28;19952;-70
2022/11/25 05:28:27;;;;;;;;;;;0.20;99.90;;;;;;5045638;28;19988;-70
2022/11/25 05:30:54;;;;;;;;;;;0.10;99.90;;;;;;5037867;28;20236;-70
2022/11/25 05:33:21;;;;;;;;;;;0.10;99.90;;;;;;5045034;28;20177;-70
2022/11/25 05:35:54;;;;;;;;;;;0.10;99.90;;;;;;5044631;28;19988;-67
2022/11/25 05:38:21;;;;;;;;;;;0.10;99.90;;;;;;5045319;28;19921;-68
2022/11/25 05:40:48;;;;;;;;;;;0.10;99.90;;;;;;5045012;28;20259;-67
2022/11/25 05:43:14;;;;;;;;;;;0.10;99.90;;;;;;5045236;28;19953;-67
2022/11/25 05:45:41;;;;;;;;;;;0.00;99.90;;;;;;5044539;28;19952;-67
2022/11/25 05:48:08;;;;;;;;;;;0.00;99.90;;;;;;5044800;28;20179;-67
2022/11/25 05:50:34;;;;;;;;;;;0.00;99.90;;;;;;5045056;28;19956;-67
2022/11/25 05:53:02;;;;;;;;;;;0.00;99.90;;;;;;5045177;28;20000;-67
2022/11/25 05:55:29;;;;;;;;;;;0.00;99.90;;;;;;5044352;28;19984;-67
2022/11/25 05:57:57;;;;;;;;;;;0.00;99.90;;;;;;5045133;28;19995;-67
2022/11/25 06:00:24;;;;;;;;;;;0.10;99.90;;;;;;5044766;28;19987;-66
2022/11/25 06:02:51;;;;;;;;;;;0.00;99.90;;;;;;5044441;28;19994;-67
2022/11/25 06:05:18;;;;;;;;;;;0.00;99.90;;;;;;5042928;28;19974;-67
2022/11/25 06:07:44;;;;;;;;;;;0.00;99.90;;;;;;5044584;28;19928;-68
2022/11/25 06:10:13;;;;;;;;;;;0.00;99.90;;;;;;5044633;28;19963;-67
2022/11/25 06:12:39;;;;;;;;;;;0.00;99.90;;;;;;5044841;28;20252;-67
2022/11/25 06:15:07;;;;;;;;;;;0.10;99.90;;;;;;5043556;28;19957;-67
2022/11/25 06:17:33;;;;;;;;;;;0.10;99.90;;;;;;5044023;28;19920;-67
2022/11/25 06:20:00;;;;;;;;;;;0.10;99.90;;;;;;5043966;28;19996;-66
2022/11/25 06:22:26;;;;;;;;;;;0.20;99.90;;;;;;5044238;28;19989;-68
2022/11/25 06:24:53;;;;;;;;;;;0.10;99.90;;;;;;5043706;28;20163;-68
2022/11/25 06:27:21;;;;;;;;;;;0.10;99.90;;;;;;5044128;28;20242;-65
2022/11/25 06:29:48;;;;;;;;;;;0.10;99.90;;;;;;5044458;28;19988;-67
2022/11/25 06:32:14;;;;;;;;;;;0.20;99.90;;;;;;5044375;28;19985;-68
2022/11/25 06:34:41;;;;;;;;;;;0.10;99.90;;;;;;5043719;28;19921;-68
2022/11/25 06:37:08;;;;;;;;;;;0.20;99.90;;;;;;5043945;28;19926;-68
2022/11/25 06:39:34;;;;;;;;;;;0.10;99.90;;;;;;5044313;28;19921;-68
2022/11/25 06:42:01;;;;;;;;;;;0.20;99.90;;;;;;5044065;28;19988;-68
2022/11/25 06:44:29;;;;;;;;;;;0.20;99.90;;;;;;5044391;28;19956;-67
2022/11/25 06:46:56;;;;;;;;;;;0.20;99.90;;;;;;5043236;28;19989;-67
2022/11/25 06:49:22;;;;;;;;;;;0.20;99.90;;;;;;5043899;28;19963;-67
2022/11/25 06:51:49;;;;;;;;;;;0.30;99.90;;;;;;5044152;28;19975;-67
2022/11/25 06:54:16;;;;;;;;;;;0.30;99.90;;;;;;5044077;28;19984;-68
2022/11/25 06:56:42;;;;;;;;;;;0.30;99.90;;;;;;5043372;28;20182;-68
2022/11/25 06:59:09;;;;;;;;;;;0.30;99.90;;;;;;5043713;28;20283;-67
2022/11/25 07:01:38;;;;;;;;;;;0.30;99.90;;;;;;5043560;28;19984;-67
2022/11/25 07:04:05;;;;;;;;;;;0.40;99.90;;;;;;5043896;28;19928;-67
2022/11/25 07:06:32;;;;;;;;;;;0.40;99.90;;;;;;5043225;28;19957;-68
2022/11/25 07:08:59;;;;;;;;;;;0.40;99.90;;;;;;5043612;28;19921;-67
2022/11/25 07:11:26;;;;;;;;;;;0.40;99.90;;;;;;5043885;28;19952;-68
2022/11/25 07:13:54;;;;;;;;;;;0.50;99.90;;;;;;5043837;28;19983;-68
2022/11/25 07:16:20;;;;;;;;;;;0.50;99.90;;;;;;5040062;28;19967;-67
2022/11/25 07:18:48;;;;;;;;;;;0.50;99.90;;;;;;5038934;28;20001;-67
2022/11/25 07:21:16;;;;;;;;;;;0.60;99.90;;;;;;5043448;28;19952;-68
2022/11/25 07:23:43;;;;;;;;;;;0.60;99.90;;;;;;5051095;28;19952;-68
2022/11/25 07:26:11;;;;;;;;;;;0.60;99.90;;;;;;5057148;28;19959;-68
2022/11/25 07:28:38;;;;;;;;;;;0.60;99.90;;;;;;5043521;28;19995;-67
2022/11/25 07:31:06;;;;;;;;;;;0.60;99.90;;;;;;5053926;28;19988;-68
2022/11/25 07:33:32;;;;;;;;;;;0.70;99.90;;;;;;5043671;28;19988;-69
2022/11/25 07:36:02;;;;;;;;;;;0.70;99.90;;;;;;5043039;28;19948;-67
2022/11/25 07:38:29;;;;;;;;;;;0.70;99.90;;;;;;5045127;28;19996;-67
2022/11/25 07:40:56;;;;;;;;;;;0.70;99.90;;;;;;5063589;28;20176;-67
2022/11/25 07:43:22;;;;;;;;;;;0.70;99.90;;;;;;5063584;28;19952;-67
2022/11/25 07:45:49;;;;;;;;;;;0.80;99.90;;;;;;5062507;28;20180;-67
2022/11/25 07:48:16;;;;;;;;;;;0.80;99.90;;;;;;5051933;28;19988;-68
2022/11/25 07:50:42;;;;;;;;;;;0.80;99.90;;;;;;5042286;28;19995;-68
2022/11/25 07:53:10;;;;;;;;;;;0.80;99.90;;;;;;5042317;28;19963;-67
2022/11/25 07:55:37;;;;;;;;;;;0.80;99.90;;;;;;5044350;28;20253;-68
2022/11/25 07:58:03;;;;;;;;;;;0.90;99.90;;;;;;5048388;28;19936;-68
2022/11/25 08:00:30;;;;;;;;;;;0.80;99.90;;;;;;5060991;28;19952;-66
2022/11/25 08:02:57;;;;;;;;;;;0.80;99.90;;;;;;5047043;28;19949;-67
2022/11/25 08:05:23;;;;;;;;;;;0.80;99.90;;;;;;5047965;28;20372;-67
2022/11/25 08:07:50;;;;;;;;;;;0.80;99.90;;;;;;5062964;28;20279;-67
2022/11/25 08:10:18;;;;;;;;;;;0.80;99.90;;;;;;5050817;28;19996;-67
2022/11/25 08:12:45;;;;;;;;;;;0.80;99.90;;;;;;5063250;28;19952;-66
2022/11/25 08:15:11;;;;;;;;;;;0.90;99.90;;;;;;5056649;28;19993;-67
2022/11/25 08:17:38;;;;;;;;;;;1.00;99.90;;;;;;5035833;28;19978;-67
2022/11/25 08:20:05;;;;;;;;;;;1.00;99.90;;;;;;5042543;28;20000;-66
2022/11/25 08:22:32;;;;;;;;;;;1.00;99.90;;;;;;5042665;28;19952;-68
2022/11/25 08:24:58;;;;;;;;;;;1.00;99.90;;;;;;5022613;28;19949;-67
2022/11/25 08:27:26;;;;;;;;;;;1.10;99.90;;;;;;5037769;28;20246;-67
2022/11/25 08:29:53;;;;;;;;;;;1.10;99.90;;;;;;5045892;28;19952;-67
2022/11/25 08:32:20;;;;;;;;;;;1.20;99.90;;;;;;5038804;28;19921;-67
2022/11/25 08:34:47;;;;;;;;;;;1.30;99.90;;;;;;5045770;28;19929;-67
2022/11/25 08:37:13;;;;;;;;;;;1.40;99.90;;;;;;5045976;28;19988;-67
2022/11/25 08:39:40;;;;;;;;;;;1.50;99.90;;;;;;5046005;28;20017;-67
2022/11/25 08:42:06;;;;;;;;;;;1.50;99.90;;;;;;5045780;28;19993;-67
2022/11/25 08:44:34;;;;;;;;;;;1.60;99.90;;;;;;5045647;28;19987;-67
2022/11/25 08:47:01;;;;;;;;;;;1.60;99.90;;;;;;5038538;28;19993;-67
2022/11/25 08:49:29;;;;;;;;;;;1.60;99.90;;;;;;5046338;28;19984;-67
2022/11/25 08:51:55;;;;;;;;;;;1.70;99.90;;;;;;5045732;28;20208;-66
2022/11/25 08:54:22;;;;;;;;;;;1.70;99.90;;;;;;5050629;28;19975;-67
2022/11/25 08:56:49;;;;;;;;;;;1.80;99.90;;;;;;5054176;28;20175;-67
2022/11/25 08:59:15;;;;;;;;;;;1.90;99.90;;;;;;5048719;28;19921;-67
2022/11/25 09:01:44;;;;;;;;;;;1.90;99.90;;;;;;5045765;28;19993;-67
2022/11/25 09:04:10;;;;;;;;;;;2.10;99.90;;;;;;5045329;28;19921;-67
2022/11/25 09:06:38;;;;;;;;;;;2.20;99.90;;;;;;5045041;28;19952;-67
2022/11/25 09:09:05;;;;;;;;;;;2.30;99.90;;;;;;5054776;28;19956;-67
2022/11/25 09:11:32;;;;;;;;;;;2.50;99.90;;;;;;5045655;28;19921;-66
2022/11/25 09:13:58;;;;;;;;;;;2.50;99.90;;;;;;5052820;28;20211;-67
2022/11/25 09:16:25;;;;;;;;;;;2.50;99.90;;;;;;5053845;28;20156;-66
2022/11/25 09:18:53;;;;;;;;;;;2.60;99.90;;;;;;5045178;28;20235;-67
2022/11/25 09:21:20;;;;;;;;;;;2.60;99.90;;;;;;5045408;28;20268;-67
2022/11/25 09:23:49;;;;;;;;;;;2.70;99.90;;;;;;5045408;28;19984;-67
2022/11/25 09:26:20;;;;;;;;;;;2.70;99.90;;;;;;5044580;28;19980;-67
2022/11/25 09:28:46;;;;;;;;;;;2.80;99.90;;;;;;5045448;28;19959;-67
2022/11/25 09:31:13;;;;;;;;;;;2.90;99.90;;;;;;5044866;28;19980;-67
2022/11/25 09:33:39;;;;;;;;;;;3.00;99.90;;;;;;5045412;28;19922;-66
2022/11/25 09:36:08;;;;;;;;;;;3.10;99.90;;;;;;5047588;28;20173;-67
2022/11/25 09:38:35;;;;;;;;;;;3.20;99.90;;;;;;5047651;28;20272;-67
2022/11/25 09:41:05;;;;;;;;;;;3.40;99.90;;;;;;5040097;28;19921;-67
2022/11/25 09:46:41;;;;;;;;;;;3.50;99.90;;;;;;5061310;28;19924;-67
2022/11/25 09:49:13;;;;;;;;;;;3.60;99.90;;;;;;5057290;28;19953;-68
2022/11/25 09:51:48;;;;;;;;;;;3.70;99.90;;;;;;5044604;28;19983;-67
2022/11/25 09:54:18;;;;;;;;;;;3.80;99.90;;;;;;5056040;28;20179;-67
2022/11/25 09:56:48;;;;;;;;;;;3.90;99.90;;;;;;5047776;28;19955;-67
2022/11/25 09:59:17;;;;;;;;;;;4.00;99.90;;;;;;5065096;28;19956;-67
2022/11/25 10:01:47;;;;;;;;;;;4.10;99.90;;;;;;5046105;28;19984;-69
2022/11/25 10:04:17;;;;;;;;;;;4.30;99.90;;;;;;5044032;28;19929;-69
2022/11/25 10:06:48;;;;;;;;;;;4.50;99.90;;;;;;5043799;28;19921;-67
2022/11/25 10:09:15;;;;;;;;;;;4.60;99.90;;;;;;5044742;28;19987;-67
2022/11/25 10:11:46;;;;;;;;;;;4.80;99.90;;;;;;5044153;28;19921;-67
2022/11/25 10:14:17;;;;;;;;;;;5.00;99.90;;;;;;5044264;28;19955;-68
2022/11/25 10:16:47;;;;;;;;;;;5.20;99.90;;;;;;5040949;28;19992;-67
2022/11/25 10:19:18;;;;;;;;;;;5.30;99.90;;;;;;5044360;28;19960;-68
2022/11/25 10:21:47;;;;;;;;;;;5.40;99.90;;;;;;5044440;28;19973;-67
2022/11/25 10:24:14;;;;;;;;;;;5.50;99.90;;;;;;5053395;28;20153;-67
2022/11/25 10:26:42;;;;;;;;;;;5.60;99.90;;;;;;5043839;28;19988;-67
2022/11/25 10:29:20;;;;;;;;;;;5.60;99.90;;;;;;5044179;28;19987;-68
2022/11/25 10:31:46;;;;;;;;;;;5.60;99.90;;;;;;5076249;22;20253;-93
2022/11/25 10:34:18;;;;;;;;;;;5.60;99.90;;;;;;5057692;28;19924;-93
2022/11/25 10:36:48;;;;;;;;;;;5.70;99.90;;;;;;5044670;28;19944;-94
2022/11/25 10:39:23;;;;;;;;;;;4.70;99.90;;;;;;5068894;28;19916;-94
2022/11/25 10:41:52;;;;;;;;;;;6.20;99.90;;;;;;5067570;28;19909;-94
2022/11/25 10:44:24;;;;;;;;;;;5.80;99.90;;;;;;5047525;23;19934;-69
2022/11/25 10:46:55;;;;;;;;;;;5.90;99.90;;;;;;5023624;28;19988;-68
2022/11/25 10:49:28;;;;;;;;;;;6.00;99.90;;;;;;5026044;28;20137;-68
2022/11/25 10:51:56;;;;;;;;;;;6.10;99.90;;;;;;5023828;28;19952;-67
2022/11/25 10:54:30;;;;;;;;;;;6.20;99.90;;;;;;5021279;28;19929;-70
2022/11/25 10:56:58;;;;;;;;;;;6.40;99.90;;;;;;5023953;28;19997;-68
2022/11/25 10:59:26;;;;;;;;;;;6.70;99.90;;;;;;5024046;28;19961;-68
2022/11/25 11:01:53;;;;;;;;;;;7.00;99.90;;;;;;5023753;28;20169;-68
2022/11/25 11:04:20;;;;;;;;;;;7.10;99.90;;;;;;5032234;28;19960;-68
2022/11/25 11:06:47;;;;;;;;;;;7.10;99.90;;;;;;5023278;28;19989;-68
2022/11/25 11:09:33;;;;;;;;;;;7.10;99.90;;;;;;5023592;28;19992;-68
2022/11/25 11:12:07;;;;;;;;;;;7.10;99.90;;;;;;5023728;28;20163;-69
2022/11/25 11:14:34;;;;;;;;;;;7.10;99.90;;;;;;5021348;28;20009;-68
2022/11/25 11:17:01;;;;;;;;;;;7.10;99.90;;;;;;5023351;28;19985;-68
2022/11/25 11:19:28;;;;;;;;;;;7.00;99.90;;;;;;5032022;28;20173;-68
2022/11/25 11:21:56;;;;;;;;;;;7.00;99.90;;;;;;5023897;28;19989;-68
2022/11/25 11:24:25;;;;;;;;;;;7.00;99.90;;;;;;5023583;28;19952;-68
2022/11/25 11:27:02;;;;;;;;;;;7.00;99.90;;;;;;5022935;28;19988;-69
2022/11/25 11:29:28;;;;;;;;;;;6.90;99.90;;;;;;5023562;28;19985;-68
2022/11/25 11:31:57;;;;;;;;;;;6.90;99.90;;;;;;5023581;28;19988;-68
2022/11/25 11:34:33;;;;;;;;;;;6.90;99.90;;;;;;5032636;28;19960;-69
2022/11/25 11:37:10;;;;;;;;;;;6.90;99.90;;;;;;5005682;28;20181;-68
2022/11/25 11:39:50;;;;;;;;;;;6.90;99.90;;;;;;5023789;28;20156;-68
2022/11/25 11:42:22;;;;;;;;;;;7.00;99.90;;;;;;5023162;28;20304;-68
2022/11/25 11:44:56;;;;;;;;;;;7.00;99.90;;;;;;5022833;28;20106;-69
2022/11/25 11:47:26;;;;;;;;;;;7.00;99.90;;;;;;5027013;28;20284;-68
2022/11/25 11:49:59;;;;;;;;;;;7.10;99.90;;;;;;5034951;28;19944;-68
2022/11/25 11:52:31;;;;;;;;;;;7.10;99.90;;;;;;5040371;28;19993;-68
2022/11/25 11:55:00;;;;;;;;;;;7.10;99.90;;;;;;5022840;28;19960;-68
2022/11/25 11:57:34;;;;;;;;;;;7.10;99.90;;;;;;5023589;28;19957;-68
2022/11/25 12:00:03;;;;;;;;;;;7.20;99.90;;;;;;5022920;28;20178;-68
2022/11/25 12:02:35;;;;;;;;;;;7.30;99.90;;;;;;5027753;28;19921;-68
2022/11/25 12:05:12;;;;;;;;;;;7.30;99.90;;;;;;5024963;28;19992;-68
2022/11/25 12:07:44;;;;;;;;;;;7.30;99.90;;;;;;5027011;28;20482;-68
2022/11/25 12:10:17;;;;;;;;;;;7.40;99.90;;;;;;5026730;28;19957;-69
2022/11/25 12:12:48;;;;;;;;;;;7.40;99.90;;;;;;5026981;28;19922;-69
2022/11/25 12:15:17;;;;;;;;;;;7.50;99.90;;;;;;5026342;28;20121;-69
2022/11/25 12:17:46;;;;;;;;;;;7.40;99.90;;;;;;5026831;28;19988;-69
2022/11/25 12:20:16;;;;;;;;;;;7.40;99.90;;;;;;5034747;28;19996;-68
2022/11/25 12:22:47;;;;;;;;;;;7.50;99.90;;;;;;5026488;28;20244;-68
2022/11/25 12:25:16;;;;;;;;;;;7.40;99.90;;;;;;5024139;28;19997;-67
2022/11/25 12:27:46;;;;;;;;;;;7.60;99.90;;;;;;5026299;28;19972;-68
2022/11/25 12:30:15;;;;;;;;;;;7.60;99.90;;;;;;5026780;28;19996;-68
2022/11/25 12:32:52;;;;;;;;;;;7.70;99.90;;;;;;5033074;28;19921;-68
2022/11/25 12:35:22;;;;;;;;;;;7.70;99.90;;;;;;5016178;28;19925;-68
2022/11/25 12:37:53;;;;;;;;;;;7.70;99.90;;;;;;5026422;28;20266;-68
2022/11/25 12:40:24;;;;;;;;;;;7.70;99.90;;;;;;5025029;28;19960;-68
2022/11/25 12:42:53;;;;;;;;;;;7.70;99.90;;;;;;5006815;28;19946;-68
2022/11/25 12:45:22;;;;;;;;;;;7.60;99.90;;;;;;5006110;28;19921;-68
2022/11/25 12:47:49;;;;;;;;;;;7.70;99.90;;;;;;5028822;28;19984;-68
2022/11/25 12:50:16;;;;;;;;;;;7.60;99.90;;;;;;5037851;28;19984;-67
2022/11/25 12:52:48;;;;;;;;;;;7.60;99.90;;;;;;5039597;28;19921;-68
2022/11/25 12:55:17;;;;;;;;;;;7.60;99.90;;;;;;5025261;28;19956;-67
2022/11/25 12:57:58;;;;;;;;;;;7.50;99.90;;;;;;5026307;28;19928;-68
2022/11/25 13:00:30;;;;;;;;;;;7.50;99.90;;;;;;5026120;28;20111;-68
2022/11/25 13:03:14;;;;;;;;;;;7.40;99.90;;;;;;5033977;28;19959;-68
2022/11/25 13:05:57;;;;;;;;;;;7.40;99.90;;;;;;5012030;28;19928;-67
2022/11/25 13:08:31;;;;;;;;;;;7.40;99.90;;;;;;5026067;28;19984;-67
2022/11/25 13:11:06;;;;;;;;;;;7.30;99.90;;;;;;5025598;28;19944;-67
2022/11/25 13:13:38;;;;;;;;;;;7.20;99.90;;;;;;5025625;28;19989;-68
2022/11/25 13:16:06;;;;;;;;;;;7.20;99.90;;;;;;5025213;28;20140;-67
2022/11/25 13:18:34;;;;;;;;;;;7.20;99.90;;;;;;5033644;28;19957;-68
2022/11/25 13:21:05;;;;;;;;;;;7.10;99.90;;;;;;5043281;28;19961;-68
2022/11/25 13:23:41;;;;;;;;;;;7.10;99.90;;;;;;5027522;28;20208;-68
2022/11/25 13:26:26;;;;;;;;;;;7.00;99.90;;;;;;5025180;28;19957;-69
2022/11/25 13:28:53;;;;;;;;;;;7.00;99.90;;;;;;5025870;28;19957;-68
2022/11/25 13:31:23;;;;;;;;;;;6.90;99.90;;;;;;5025544;28;19989;-68
2022/11/25 13:33:58;;;;;;;;;;;6.90;99.90;;;;;;5036502;28;20268;-68
2022/11/25 13:36:25;;;;;;;;;;;6.90;99.90;;;;;;5005475;28;19953;-68
2022/11/25 13:39:01;;;;;;;;;;;6.80;99.90;;;;;;5021074;28;19968;-67
2022/11/25 13:41:41;;;;;;;;;;;6.80;99.90;;;;;;5025007;28;19928;-68
2022/11/25 13:44:15;;;;;;;;;;;6.90;99.90;;;;;;5025480;28;19985;-68
2022/11/25 13:46:45;;;;;;;;;;;6.90;99.90;;;;;;5024672;28;19992;-67
2022/11/25 13:49:32;;;;;;;;;;;6.80;99.90;;;;;;5033456;28;19921;-66
2022/11/25 13:52:01;;;;;;;;;;;6.80;99.90;;;;;;5025087;28;20048;-66
2022/11/25 13:54:32;;;;;;;;;;;6.80;99.90;;;;;;5024216;28;20167;-66
2022/11/25 13:57:01;;;;;;;;;;;6.70;99.90;;;;;;5024391;28;20001;-67
2022/11/25 13:59:48;;;;;;;;;;;6.70;99.90;;;;;;5025187;28;19991;-66
2022/11/25 14:02:33;;;;;;;;;;;6.70;99.90;;;;;;5022932;28;19987;-67
2022/11/25 14:05:02;;;;;;;;;;;6.70;99.90;;;;;;5021045;28;19957;-66
2022/11/25 14:07:35;;;;;;;;;;;6.70;99.90;;;;;;5016376;28;19985;-67
2022/11/25 14:10:20;;;;;;;;;;;6.70;99.90;;;;;;5022496;28;20192;-67
2022/11/25 14:12:55;;;;;;;;;;;6.70;99.90;;;;;;5020127;28;19964;-66
2022/11/25 14:15:29;;;;;;;;;;;6.70;99.90;;;;;;5008588;28;19981;-67
2022/11/25 14:18:10;;;;;;;;;;;6.70;99.90;;;;;;5021712;28;19997;-66
2022/11/25 14:20:43;;;;;;;;;;;6.70;99.90;;;;;;5024537;28;20259;-67
2022/11/25 14:23:27;;;;;;;;;;;6.70;99.90;;;;;;5024469;28;19977;-67
2022/11/25 14:25:55;;;;;;;;;;;6.70;99.90;;;;;;4998578;28;20228;-67
2022/11/25 14:28:27;;;;;;;;;;;6.70;99.90;;;;;;5024105;28;20287;-67
2022/11/25 14:30:58;;;;;;;;;;;6.70;99.90;;;;;;5024626;28;19963;-68
2022/11/25 14:33:31;;;;;;;;;;;6.70;99.90;;;;;;5029858;28;19921;-68
2022/11/25 14:36:01;;;;;;;;;;;6.70;99.90;;;;;;5041060;28;19993;-68
2022/11/25 14:38:29;;;;;;;;;;;6.70;99.90;;;;;;5044406;28;20018;-68
2022/11/25 14:40:58;;;;;;;;;;;6.70;99.90;;;;;;5044299;28;19921;-67
2022/11/25 14:43:26;;;;;;;;;;;6.70;99.90;;;;;;5044229;28;19936;-68
2022/11/25 14:46:08;;;;;;;;;;;6.70;99.90;;;;;;5030178;28;19957;-68
2022/11/25 14:48:37;;;;;;;;;;;6.70;99.90;;;;;;5023146;28;20004;-71
2022/11/25 14:51:06;;;;;;;;;;;6.70;99.90;;;;;;5024544;28;19925;-67